createdAt,value
2018-03-18T00:03:15.549Z,77.41
2018-03-18T00:06:38.886Z,78.86
2018-03-18T00:10:02.954Z,77.19
2018-03-18T00:13:27.028Z,77.86
2018-03-18T00:16:50.335Z,77.21
2018-03-18T00:20:13.668Z,77.18
2018-03-18T00:23:36.990Z,77.38
2018-03-18T00:27:00.332Z,77.25
2018-03-18T00:30:24.413Z,77.57
2018-03-18T00:33:48.527Z,77.14
2018-03-18T00:37:11.921Z,77.07
2018-03-18T00:40:36.061Z,77.30
2018-03-18T00:44:00.149Z,77.45
2018-03-18T00:47:24.326Z,77.00
2018-03-18T00:50:48.401Z,77.43
2018-03-18T00:54:11.743Z,77.35
2018-03-18T00:57:36.005Z,78.08
2018-03-18T01:00:59.300Z,77.91
2018-03-18T01:04:23.378Z,78.12
2018-03-18T01:07:47.503Z,78.24
2018-03-18T01:11:11.045Z,77.96
2018-03-18T01:14:34.430Z,77.88
2018-03-18T01:17:58.590Z,78.19
2018-03-18T01:21:21.951Z,77.85
2018-03-18T01:24:45.315Z,76.63
2018-03-18T01:28:09.485Z,76.26
2018-03-18T01:31:32.803Z,76.12
2018-03-18T01:34:56.189Z,76.25
2018-03-18T01:38:20.253Z,76.11
2018-03-18T01:41:44.469Z,76.64
2018-03-18T01:45:08.599Z,76.10
2018-03-18T01:48:32.898Z,76.06
2018-03-18T01:51:56.978Z,75.84
2018-03-18T01:55:21.254Z,76.20
2018-03-18T01:58:45.381Z,76.65
2018-03-18T02:02:08.704Z,77.04
2018-03-18T02:05:32.051Z,76.24
2018-03-18T02:08:56.145Z,76.23
2018-03-18T02:12:20.241Z,75.76
2018-03-18T02:15:43.550Z,76.10
2018-03-18T02:19:06.871Z,76.06
2018-03-18T02:22:30.963Z,76.69
2018-03-18T02:25:54.261Z,76.30
2018-03-18T02:29:18.331Z,76.64
2018-03-18T02:32:41.669Z,76.83
2018-03-18T02:36:05.754Z,76.95
2018-03-18T02:39:29.939Z,76.53
2018-03-18T02:42:53.246Z,76.40
2018-03-18T02:46:16.582Z,77.83
2018-03-18T02:49:40.698Z,77.28
2018-03-18T02:53:04.099Z,76.44
2018-03-18T02:56:28.157Z,75.97
2018-03-18T02:59:51.486Z,76.72
2018-03-18T03:03:14.810Z,76.61
2018-03-18T03:06:38.908Z,75.46
2018-03-18T03:10:02.971Z,75.47
2018-03-18T03:13:26.272Z,75.96
2018-03-18T03:16:50.347Z,76.17
2018-03-18T03:20:14.460Z,76.37
2018-03-18T03:23:38.551Z,75.85
2018-03-18T03:27:01.870Z,76.68
2018-03-18T03:30:26.525Z,76.18
2018-03-18T03:33:49.908Z,75.64
2018-03-18T03:37:14.026Z,75.17
2018-03-18T03:40:37.338Z,75.30
2018-03-18T03:44:00.662Z,75.76
2018-03-18T03:47:23.999Z,75.29
2018-03-18T03:50:48.080Z,76.08
2018-03-18T03:54:11.398Z,76.73
2018-03-18T03:57:34.713Z,76.91
2018-03-18T04:00:58.116Z,76.92
2018-03-18T04:04:22.185Z,76.28
2018-03-18T04:07:46.299Z,75.65
2018-03-18T04:11:09.692Z,75.58
2018-03-18T04:14:33.003Z,75.11
2018-03-18T04:17:56.382Z,75.92
2018-03-18T04:21:19.688Z,75.85
2018-03-18T04:24:43.779Z,75.94
2018-03-18T04:28:07.102Z,75.90
2018-03-18T04:31:30.416Z,75.87
2018-03-18T04:34:53.752Z,76.57
2018-03-18T04:38:17.840Z,76.72
2018-03-18T04:41:41.922Z,77.03
2018-03-18T04:45:06.042Z,76.47
2018-03-18T04:48:29.426Z,77.02
2018-03-18T04:51:52.739Z,77.17
2018-03-18T04:55:16.119Z,76.70
2018-03-18T04:58:40.184Z,76.88
2018-03-18T05:02:03.485Z,76.73
2018-03-18T05:05:27.532Z,76.82
2018-03-18T05:08:50.835Z,76.87
2018-03-18T05:12:14.899Z,76.71
2018-03-18T05:15:38.247Z,76.70
2018-03-18T05:19:02.383Z,76.21
2018-03-18T05:22:26.432Z,76.54
2018-03-18T05:25:49.746Z,76.57
2018-03-18T05:29:13.846Z,76.89
2018-03-18T05:32:37.140Z,76.62
2018-03-18T05:36:01.201Z,76.79
2018-03-18T05:39:24.589Z,76.54
2018-03-18T05:42:48.736Z,77.05
2018-03-18T05:46:12.827Z,77.24
2018-03-18T05:49:36.913Z,76.32
2018-03-18T05:53:01.013Z,76.79
2018-03-18T05:56:24.372Z,76.56
2018-03-18T05:59:48.380Z,75.91
2018-03-18T06:03:11.693Z,75.91
2018-03-18T06:06:34.987Z,75.98
2018-03-18T06:09:59.091Z,75.84
2018-03-18T06:13:23.140Z,76.01
2018-03-18T06:16:46.484Z,75.99
2018-03-18T06:20:10.569Z,76.55
2018-03-18T06:23:34.684Z,76.50
2018-03-18T06:26:58.256Z,75.89
2018-03-18T06:30:21.652Z,76.19
2018-03-18T06:33:45.763Z,76.31
2018-03-18T06:37:09.137Z,76.39
2018-03-18T06:40:32.550Z,76.64
2018-03-18T06:43:55.917Z,76.93
2018-03-18T06:47:19.424Z,75.91
2018-03-18T06:50:43.585Z,75.89
2018-03-18T06:54:07.000Z,75.95
2018-03-18T06:57:31.306Z,76.16
2018-03-18T07:00:55.003Z,75.80
2018-03-18T07:04:18.356Z,75.76
2018-03-18T07:07:41.910Z,75.90
2018-03-18T07:11:06.014Z,75.52
2018-03-18T07:14:29.355Z,75.54
2018-03-18T07:17:53.437Z,75.44
2018-03-18T07:21:17.511Z,75.62
2018-03-18T07:24:40.903Z,76.00
2018-03-18T07:28:05.129Z,75.69
2018-03-18T07:31:29.273Z,75.33
2018-03-18T07:34:53.389Z,75.90
2018-03-18T07:38:19.056Z,75.89
2018-03-18T07:41:42.454Z,76.29
2018-03-18T07:45:06.553Z,76.38
2018-03-18T07:48:29.902Z,76.24
2018-03-18T07:51:53.278Z,75.92
2018-03-18T07:55:17.442Z,76.71
2018-03-18T07:58:43.057Z,75.92
2018-03-18T08:02:07.149Z,76.04
2018-03-18T08:05:31.259Z,75.69
2018-03-18T08:08:55.380Z,76.81
2018-03-18T08:12:18.677Z,76.32
2018-03-18T08:15:42.805Z,75.80
2018-03-18T08:19:06.210Z,76.48
2018-03-18T08:22:30.295Z,76.37
2018-03-18T08:25:53.622Z,75.93
2018-03-18T08:29:16.965Z,75.24
2018-03-18T08:32:41.126Z,75.46
2018-03-18T08:40:37.501Z,75.19
2018-03-18T08:44:00.888Z,74.84
2018-03-18T08:47:24.246Z,74.70
2018-03-18T08:50:49.636Z,74.67
2018-03-18T08:54:15.623Z,74.48
2018-03-18T08:57:39.912Z,74.07
2018-03-18T09:01:04.272Z,73.74
2018-03-18T09:04:28.434Z,73.46
2018-03-18T09:07:52.098Z,73.28
2018-03-18T09:11:16.466Z,72.85
2018-03-18T09:14:39.833Z,73.54
2018-03-18T09:18:03.140Z,72.89
2018-03-18T09:21:28.685Z,72.87
2018-03-18T09:24:52.072Z,72.25
2018-03-18T09:28:15.385Z,72.78
2018-03-18T09:31:38.696Z,72.39
2018-03-18T09:35:02.762Z,72.51
2018-03-18T09:38:26.188Z,72.88
2018-03-18T09:41:49.545Z,72.62
2018-03-18T09:45:12.905Z,72.41
2018-03-18T09:48:36.328Z,72.40
2018-03-18T09:51:59.688Z,73.52
2018-03-18T09:55:23.109Z,73.30
2018-03-18T09:58:46.453Z,73.37
2018-03-18T10:02:09.763Z,73.33
2018-03-18T10:05:33.161Z,73.71
2018-03-18T10:08:56.608Z,73.79
2018-03-18T10:12:22.548Z,73.57
2018-03-18T10:15:47.379Z,74.01
2018-03-18T10:19:11.029Z,73.64
2018-03-18T10:22:39.635Z,73.49
2018-03-18T10:26:04.004Z,73.19
2018-03-18T10:29:30.531Z,72.99
2018-03-18T10:32:55.016Z,72.76
2018-03-18T10:36:18.478Z,72.65
2018-03-18T10:39:42.094Z,71.45
2018-03-18T10:43:06.237Z,71.59
2018-03-18T10:46:29.700Z,73.18
2018-03-18T10:49:53.427Z,72.74
2018-03-18T10:53:17.661Z,72.22
2018-03-18T10:56:41.741Z,73.29
2018-03-18T11:00:05.818Z,72.47
2018-03-18T11:03:29.937Z,72.24
2018-03-18T11:06:53.233Z,72.82
2018-03-18T11:10:16.534Z,71.89
2018-03-18T11:13:39.886Z,71.24
2018-03-18T11:17:03.213Z,71.56
2018-03-18T11:20:26.575Z,71.64
2018-03-18T11:23:49.934Z,70.96
2018-03-18T11:27:14.713Z,71.07
2018-03-18T11:30:38.795Z,72.11
2018-03-18T11:34:04.100Z,71.54
2018-03-18T11:37:37.361Z,71.95
2018-03-18T11:41:00.769Z,72.32
2018-03-18T11:44:25.261Z,72.54
2018-03-18T11:47:48.741Z,72.23
2018-03-18T11:51:13.926Z,72.14
2018-03-18T11:54:38.462Z,71.53
2018-03-18T11:58:01.808Z,70.61
2018-03-18T12:01:25.195Z,71.19
2018-03-18T12:04:49.249Z,70.60
2018-03-18T12:08:30.209Z,71.47
2018-03-18T12:11:53.609Z,70.62
2018-03-18T12:15:17.098Z,70.43
2018-03-18T12:18:40.492Z,70.00
2018-03-18T12:22:04.606Z,70.43
2018-03-18T12:25:28.053Z,69.50
2018-03-18T12:28:52.342Z,69.59
2018-03-18T12:35:46.661Z,69.60
2018-03-18T12:39:11.134Z,68.71
2018-03-18T12:42:54.120Z,69.84
2018-03-18T12:46:17.609Z,69.26
2018-03-18T12:49:40.933Z,67.94
2018-03-18T12:53:05.304Z,68.08
2018-03-18T12:56:28.637Z,68.81
2018-03-18T12:59:51.939Z,69.33
2018-03-18T13:03:15.236Z,70.02
2018-03-18T13:06:38.601Z,70.80
2018-03-18T13:10:01.918Z,70.32
2018-03-18T13:13:25.251Z,69.69
2018-03-18T13:16:48.608Z,70.37
2018-03-18T13:20:11.927Z,69.88
2018-03-18T13:23:35.420Z,70.27
2018-03-18T13:26:58.704Z,69.96
2018-03-18T13:30:22.053Z,69.54
2018-03-18T13:33:46.275Z,69.46
2018-03-18T13:37:10.147Z,70.41
2018-03-18T13:40:33.558Z,70.68
2018-03-18T13:43:58.577Z,71.06
2018-03-18T13:47:22.784Z,71.35
2018-03-18T13:50:46.163Z,70.86
2018-03-18T13:54:10.342Z,69.92
2018-03-18T13:57:33.749Z,69.22
2018-03-18T14:00:58.022Z,69.64
2018-03-18T14:04:21.433Z,69.91
2018-03-18T14:11:14.565Z,69.20
2018-03-18T14:14:37.991Z,69.55
2018-03-18T14:18:01.406Z,70.22
2018-03-18T14:21:25.251Z,70.00
2018-03-18T14:24:51.708Z,70.00
2018-03-18T14:28:16.531Z,69.98
2018-03-18T14:31:40.792Z,69.92
2018-03-18T14:35:04.154Z,71.55
2018-03-18T14:38:27.685Z,71.86
2018-03-18T14:41:51.123Z,71.89
2018-03-18T14:45:15.249Z,71.44
2018-03-18T14:48:40.103Z,70.44
2018-03-18T14:52:04.317Z,70.37
2018-03-18T14:55:29.757Z,70.51
2018-03-18T14:58:53.085Z,70.46
2018-03-18T15:02:17.961Z,70.90
2018-03-18T15:05:42.043Z,71.33
2018-03-18T15:09:06.233Z,71.58
2018-03-18T15:12:29.651Z,71.94
2018-03-18T15:15:57.625Z,72.06
2018-03-18T15:19:21.035Z,71.79
2018-03-18T15:22:46.181Z,71.96
2018-03-18T15:26:09.666Z,71.83
2018-03-18T15:29:33.813Z,71.90
2018-03-18T15:32:57.300Z,71.88
2018-03-18T15:36:22.250Z,71.43
2018-03-18T15:39:45.768Z,71.27
2018-03-18T15:43:09.416Z,71.95
2018-03-18T15:46:32.958Z,71.20
2018-03-18T15:50:00.543Z,70.71
2018-03-18T15:53:24.095Z,70.07
2018-03-18T15:56:49.121Z,70.43
2018-03-18T16:00:15.103Z,70.46
2018-03-18T16:03:39.651Z,70.07
2018-03-18T16:07:03.105Z,70.03
2018-03-18T16:10:26.739Z,70.25
2018-03-18T16:13:50.293Z,71.20
2018-03-18T16:17:13.651Z,71.43
2018-03-18T16:20:37.030Z,71.34
2018-03-18T16:24:01.537Z,71.27
2018-03-18T16:27:24.943Z,71.61
2018-03-18T16:34:50.027Z,71.75
2018-03-18T16:38:14.232Z,72.61
2018-03-18T16:41:39.343Z,71.79
2018-03-18T16:45:02.838Z,72.20
2018-03-18T16:48:26.296Z,72.35
2018-03-18T16:51:51.644Z,72.18
2018-03-18T16:55:15.208Z,72.88
2018-03-18T16:58:38.646Z,73.30
2018-03-18T17:02:02.265Z,73.64
2018-03-18T17:05:25.829Z,73.57
2018-03-18T17:08:50.092Z,73.71
2018-03-18T17:12:13.400Z,73.17
2018-03-18T17:15:36.969Z,72.82
2018-03-18T17:19:01.290Z,73.01
2018-03-18T17:22:24.648Z,72.72
2018-03-18T17:25:48.100Z,72.94
2018-03-18T17:29:12.247Z,73.22
2018-03-18T17:32:37.832Z,73.18
2018-03-18T17:36:01.173Z,72.31
2018-03-18T17:39:25.309Z,72.94
2018-03-18T17:42:49.423Z,72.70
2018-03-18T17:46:30.543Z,72.64
2018-03-18T17:50:11.581Z,73.26
2018-03-18T17:53:53.362Z,73.35
2018-03-18T17:57:16.753Z,73.37
2018-03-18T18:00:40.168Z,73.47
2018-03-18T18:04:06.642Z,73.95
2018-03-18T18:07:31.207Z,74.73
2018-03-18T18:10:55.267Z,74.95
2018-03-18T18:14:19.378Z,74.17
2018-03-18T18:17:42.702Z,75.38
2018-03-18T18:21:06.031Z,75.33
2018-03-18T18:24:30.233Z,75.42
2018-03-18T18:27:54.349Z,75.34
2018-03-18T18:31:17.694Z,75.54
2018-03-18T18:34:41.037Z,75.26
2018-03-18T18:38:05.352Z,75.82
2018-03-18T18:41:28.677Z,75.95
2018-03-18T18:44:51.999Z,75.33
2018-03-18T18:48:15.341Z,75.76
2018-03-18T18:51:39.426Z,76.42
2018-03-18T18:55:03.605Z,76.73
2018-03-18T18:58:27.821Z,76.40
2018-03-18T19:01:52.568Z,76.04
2018-03-18T19:05:16.020Z,75.76
2018-03-18T19:08:39.468Z,76.42
2018-03-18T19:12:03.498Z,77.56
2018-03-18T19:15:27.813Z,76.72
2018-03-18T19:18:52.165Z,77.23
2018-03-18T19:22:16.536Z,77.01
2018-03-18T19:25:41.580Z,77.14
2018-03-18T19:29:04.910Z,77.78
2018-03-18T19:32:28.335Z,78.26
2018-03-18T19:35:51.774Z,76.96
2018-03-18T19:39:15.908Z,76.59
2018-03-18T19:42:40.019Z,75.86
2018-03-18T19:46:04.132Z,76.10
2018-03-18T19:49:27.449Z,76.00
2018-03-18T19:52:50.882Z,75.66
2018-03-18T19:56:14.290Z,75.84
2018-03-18T19:59:37.682Z,75.73
2018-03-18T20:03:01.829Z,75.87
2018-03-18T20:06:25.949Z,76.03
2018-03-18T20:09:49.334Z,76.30
2018-03-18T20:13:12.706Z,76.58
2018-03-18T20:16:36.805Z,76.64
2018-03-18T20:20:00.193Z,75.92
2018-03-18T20:23:34.564Z,76.13
2018-03-18T20:26:59.181Z,75.84
2018-03-18T20:30:23.012Z,75.41
2018-03-18T20:33:48.486Z,75.89
2018-03-18T20:37:15.616Z,76.30
2018-03-18T20:40:39.691Z,75.37
2018-03-18T20:44:03.060Z,75.57
2018-03-18T20:47:27.137Z,75.70
2018-03-18T20:50:51.248Z,75.67
2018-03-18T20:54:14.620Z,75.20
2018-03-18T20:57:37.927Z,74.98
2018-03-18T21:01:02.114Z,75.26
2018-03-18T21:04:25.452Z,74.51
2018-03-18T21:07:49.616Z,74.12
2018-03-18T21:11:18.703Z,74.33
2018-03-18T21:14:43.554Z,74.70
2018-03-18T21:18:06.913Z,74.22
2018-03-18T21:21:30.590Z,74.99
2018-03-18T21:24:54.680Z,74.70
2018-03-18T21:28:18.832Z,75.05
2018-03-18T21:31:42.201Z,73.64
2018-03-18T21:35:06.356Z,76.02
2018-03-18T21:38:30.511Z,73.65
2018-03-18T21:41:54.586Z,72.94
2018-03-18T21:45:18.734Z,72.72
2018-03-18T21:48:42.093Z,73.53
2018-03-18T21:52:05.470Z,72.98
2018-03-18T21:55:29.584Z,73.77
2018-03-18T21:58:52.866Z,73.14
2018-03-18T22:02:16.161Z,73.06
2018-03-18T22:05:39.601Z,73.26
2018-03-18T22:09:02.979Z,73.82
2018-03-18T22:12:26.331Z,73.47
2018-03-18T22:15:50.402Z,73.15
2018-03-18T22:19:13.781Z,72.96
2018-03-18T22:22:37.970Z,73.45
2018-03-18T22:26:01.273Z,73.98
2018-03-18T22:29:26.810Z,73.09
2018-03-18T22:32:50.241Z,73.15
2018-03-18T22:36:13.602Z,73.70
2018-03-18T22:39:36.965Z,73.50
2018-03-18T22:43:01.052Z,73.92
2018-03-18T22:46:25.135Z,73.05
2018-03-18T22:49:49.230Z,73.99
2018-03-18T22:53:13.375Z,75.75
2018-03-18T22:56:36.723Z,73.14
2018-03-18T23:00:00.147Z,72.92
2018-03-18T23:11:18.116Z,74.52
2018-03-18T23:14:41.508Z,72.74
2018-03-18T23:18:05.681Z,73.04
2018-03-18T23:21:28.991Z,72.58
2018-03-18T23:24:52.364Z,72.35
2018-03-18T23:28:16.495Z,72.88
2018-03-18T23:39:33.670Z,72.91
2018-03-18T23:42:56.968Z,73.08
2018-03-18T23:46:20.338Z,73.35
2018-03-18T23:49:43.685Z,73.18
2018-03-18T23:53:08.008Z,72.57
2018-03-18T23:56:32.062Z,72.70
2018-03-18T23:59:55.368Z,72.40
